Time;durP1;ratioP1;P1;durP2;ratioP2;P2;SDS_P1;SDS_P2;PMS_P1;PMS_P2;Temp;Humidity;BMP_temperature;BMP_pressure;BME280_temperature;BME280_humidity;BME280_pressure;Samples;Min_cycle;Max_cycle;Signal;HPM_P1;HPM_P2
2023/03/17 00:00:23;;;;;;;8.27;4.45;;;7.10;99.90;;;;;;5072836;28;20159;-83
2023/03/17 00:03:25;;;;;;;9.18;4.20;;;7.10;99.90;;;;;;5067647;28;20055;-83
2023/03/17 00:06:27;;;;;;;8.60;4.47;;;7.20;99.90;;;;;;5093625;28;20071;-81
2023/03/17 00:09:15;;;;;;;10.98;4.32;;;7.20;99.90;;;;;;5094346;28;20048;-81
2023/03/17 00:12:04;;;;;;;8.85;4.68;;;7.20;99.90;;;;;;5101352;28;20047;-82
2023/03/17 00:14:51;;;;;;;8.23;4.72;;;7.20;99.90;;;;;;5090862;28;20058;-82
2023/03/17 00:17:37;;;;;;;8.98;4.78;;;7.30;99.90;;;;;;5095840;28;20052;-83
2023/03/17 00:20:31;;;;;;;9.40;4.55;;;7.30;99.90;;;;;;5060788;28;20059;-83
2023/03/17 00:23:20;;;;;;;12.43;4.45;;;7.30;99.90;;;;;;5075167;28;20040;-81
2023/03/17 00:26:08;;;;;;;10.07;4.80;;;7.30;99.90;;;;;;5092110;28;20059;-83
2023/03/17 00:28:54;;;;;;;9.40;4.55;;;7.30;99.90;;;;;;5092274;28;20509;-85
2023/03/17 00:31:43;;;;;;;10.20;4.18;;;7.30;99.90;;;;;;5091198;28;20113;-83
2023/03/17 00:34:29;;;;;;;9.50;5.03;;;7.30;99.90;;;;;;5092227;28;20056;-84
2023/03/17 00:37:16;;;;;;;8.77;4.72;;;7.30;99.90;;;;;;5102912;28;20040;-83
2023/03/17 00:40:02;;;;;;;10.00;4.40;;;7.30;99.90;;;;;;5090870;28;20044;-85
2023/03/17 00:42:50;;;;;;;7.57;4.82;;;7.40;99.90;;;;;;5090329;28;20059;-83
2023/03/17 00:45:37;;;;;;;9.75;4.82;;;7.40;99.90;;;;;;5091860;28;20044;-82
2023/03/17 00:48:23;;;;;;;9.30;4.30;;;7.40;99.90;;;;;;5076226;28;20044;-83
2023/03/17 00:51:10;;;;;;;8.77;4.05;;;7.40;99.90;;;;;;5092369;28;20074;-82
2023/03/17 00:53:57;;;;;;;8.30;4.10;;;7.40;99.90;;;;;;5101235;28;20044;-83
2023/03/17 00:56:44;;;;;;;7.82;4.25;;;7.40;99.90;;;;;;5094483;28;20051;-83
2023/03/17 00:59:37;;;;;;;6.47;3.53;;;7.40;99.90;;;;;;5101803;28;20059;-84
2023/03/17 01:02:23;;;;;;;8.88;4.18;;;7.40;99.90;;;;;;5089643;28;20099;-83
2023/03/17 01:05:10;;;;;;;7.88;4.63;;;7.40;99.90;;;;;;5090152;28;20048;-83
2023/03/17 01:07:57;;;;;;;8.18;3.95;;;7.50;99.90;;;;;;5090926;28;20048;-83
2023/03/17 01:10:43;;;;;;;8.25;4.65;;;7.50;99.90;;;;;;5089730;28;20131;-85
2023/03/17 01:13:29;;;;;;;7.65;4.78;;;7.40;99.90;;;;;;5090836;28;20456;-82
2023/03/17 01:16:15;;;;;;;10.30;4.90;;;7.50;99.90;;;;;;5099315;28;20048;-83
2023/03/17 01:19:02;;;;;;;10.05;4.75;;;7.40;99.90;;;;;;5091587;28;20052;-82
2023/03/17 01:21:49;;;;;;;10.82;4.20;;;7.50;99.90;;;;;;5091516;28;20059;-82
2023/03/17 01:24:35;;;;;;;9.40;4.10;;;7.40;99.90;;;;;;5091360;28;20083;-82
2023/03/17 01:27:21;;;;;;;7.82;4.13;;;7.50;99.90;;;;;;5090920;28;20139;-82
2023/03/17 01:30:18;;;;;;;7.82;4.30;;;7.40;99.90;;;;;;5081647;28;20060;-82
2023/03/17 01:33:07;;;;;;;9.13;4.85;;;7.40;99.90;;;;;;5091004;28;20039;-85
2023/03/17 01:35:53;;;;;;;7.35;3.95;;;7.40;99.90;;;;;;5090787;28;20043;-84
2023/03/17 01:38:39;;;;;;;10.80;4.35;;;7.40;99.90;;;;;;5095799;28;20047;-82
2023/03/17 01:41:25;;;;;;;9.18;4.15;;;7.40;99.90;;;;;;5071898;28;20086;-84
2023/03/17 01:44:17;;;;;;;13.55;4.35;;;7.40;99.90;;;;;;5090356;28;20075;-83
2023/03/17 01:47:03;;;;;;;7.70;3.85;;;7.40;99.90;;;;;;5090176;28;20131;-82
2023/03/17 01:49:49;;;;;;;8.73;3.67;;;7.40;99.90;;;;;;5071984;28;20131;-84
2023/03/17 01:52:38;;;;;;;13.07;3.92;;;7.40;99.90;;;;;;5059089;28;20059;-83
2023/03/17 01:55:24;;;;;;;9.50;4.55;;;7.40;99.90;;;;;;5094453;28;20052;-82
2023/03/17 01:58:11;;;;;;;8.63;3.55;;;7.40;99.90;;;;;;5082684;28;20052;-85
2023/03/17 02:00:57;;;;;;;10.95;4.80;;;7.40;99.90;;;;;;5096069;28;20142;-82
2023/03/17 02:03:44;;;;;;;8.30;3.72;;;7.40;99.90;;;;;;5071635;28;20519;-85
2023/03/17 02:06:31;;;;;;;7.15;3.13;;;7.40;99.90;;;;;;5090412;28;20075;-82
2023/03/17 02:09:17;;;;;;;9.13;3.53;;;7.40;99.90;;;;;;5090378;28;20135;-82
2023/03/17 02:12:05;;;;;;;7.75;3.80;;;7.40;99.90;;;;;;5089801;28;20426;-84
2023/03/17 02:14:51;;;;;;;7.72;3.60;;;7.40;99.90;;;;;;5057020;28;20567;-83
2023/03/17 02:17:38;;;;;;;15.10;3.58;;;7.40;99.90;;;;;;5089736;28;20052;-82
2023/03/17 02:20:24;;;;;;;6.43;3.15;;;7.40;99.90;;;;;;5075149;28;20099;-84
2023/03/17 02:23:10;;;;;;;14.40;5.78;;;7.40;99.90;;;;;;5099119;28;20040;-82
2023/03/17 02:25:56;;;;;;;8.45;3.65;;;7.40;99.90;;;;;;5090424;28;20048;-83
2023/03/17 02:28:44;;;;;;;10.73;4.55;;;7.30;99.90;;;;;;5090073;28;20518;-82
2023/03/17 02:31:32;;;;;;;8.10;3.70;;;7.30;99.90;;;;;;5090043;28;20044;-83
2023/03/17 02:34:18;;;;;;;7.68;3.55;;;7.30;99.90;;;;;;5090124;28;20059;-85
2023/03/17 02:37:06;;;;;;;9.10;3.80;;;7.30;99.90;;;;;;5057587;28;20060;-82
2023/03/17 02:39:53;;;;;;;8.77;4.22;;;7.30;99.90;;;;;;5089283;28;20054;-84
2023/03/17 02:42:40;;;;;;;6.50;3.22;;;7.30;99.90;;;;;;5089923;28;20144;-85
2023/03/17 02:45:26;;;;;;;10.85;3.75;;;7.30;99.90;;;;;;5080878;28;20522;-84
2023/03/17 02:48:12;;;;;;;7.78;3.88;;;7.30;99.90;;;;;;5089480;28;20105;-83
2023/03/17 02:50:59;;;;;;;7.38;4.25;;;7.20;99.90;;;;;;5089455;28;20515;-81
2023/03/17 02:53:45;;;;;;;7.03;3.55;;;7.30;99.90;;;;;;5095867;28;20047;-82
2023/03/17 02:56:31;;;;;;;9.57;3.67;;;7.30;99.90;;;;;;5090504;28;20492;-82
2023/03/17 02:59:17;;;;;;;9.48;3.70;;;7.30;99.90;;;;;;5088729;28;20052;-84
2023/03/17 03:02:03;;;;;;;7.45;3.97;;;7.30;99.90;;;;;;5071288;28;20052;-85
2023/03/17 03:04:49;;;;;;;8.55;4.35;;;7.30;99.90;;;;;;5072026;28;20087;-85
2023/03/17 03:07:35;;;;;;;6.55;3.40;;;7.20;99.90;;;;;;5094271;28;20416;-83
2023/03/17 03:10:22;;;;;;;7.10;3.58;;;7.20;99.90;;;;;;5087414;28;20047;-84
2023/03/17 03:13:08;;;;;;;7.93;3.97;;;7.20;99.90;;;;;;5070689;28;20056;-82
2023/03/17 03:15:54;;;;;;;8.85;3.67;;;7.10;99.90;;;;;;5088507;28;20484;-83
2023/03/17 03:18:40;;;;;;;6.70;3.90;;;7.10;99.90;;;;;;5089035;28;20080;-83
2023/03/17 03:21:26;;;;;;;6.60;3.60;;;7.10;99.90;;;;;;5088162;28;20485;-83
2023/03/17 03:24:12;;;;;;;7.53;4.07;;;7.10;99.90;;;;;;5091157;28;20059;-82
2023/03/17 03:26:58;;;;;;;9.00;4.10;;;7.10;99.90;;;;;;5101207;28;20044;-83
2023/03/17 03:29:45;;;;;;;7.93;4.15;;;7.10;99.90;;;;;;5090113;28;20051;-82
2023/03/17 03:32:31;;;;;;;6.55;3.63;;;7.20;99.90;;;;;;5089580;28;20080;-84
2023/03/17 03:35:17;;;;;;;7.13;3.78;;;7.10;99.90;;;;;;5092310;28;20546;-82
2023/03/17 03:38:03;;;;;;;5.50;3.33;;;7.20;99.90;;;;;;5092470;28;20048;-84
2023/03/17 03:40:49;;;;;;;8.05;3.90;;;7.10;99.90;;;;;;5092274;28;20051;-83
2023/03/17 03:43:35;;;;;;;6.65;4.18;;;7.10;99.90;;;;;;5092180;28;20428;-82
2023/03/17 03:46:21;;;;;;;7.63;4.20;;;7.20;99.90;;;;;;5093096;28;20122;-83
2023/03/17 03:49:07;;;;;;;8.10;4.03;;;7.20;99.90;;;;;;5095787;28;20059;-82
2023/03/17 03:51:53;;;;;;;8.15;4.30;;;7.10;99.90;;;;;;5078155;28;20135;-82
2023/03/17 03:54:39;;;;;;;8.57;3.50;;;7.10;99.90;;;;;;5101099;28;20208;-83
2023/03/17 03:57:25;;;;;;;8.80;4.22;;;7.20;99.90;;;;;;5099778;28;20067;-84
2023/03/17 04:00:15;;;;;;;9.15;4.43;;;7.10;99.90;;;;;;5102248;28;20052;-83
2023/03/17 04:03:01;;;;;;;7.53;3.55;;;7.20;99.90;;;;;;5091947;28;20044;-83
2023/03/17 04:05:47;;;;;;;7.38;3.33;;;7.20;99.90;;;;;;5092781;28;20073;-83
2023/03/17 04:08:33;;;;;;;8.18;3.90;;;7.20;99.90;;;;;;5093381;28;20101;-83
2023/03/17 04:11:19;;;;;;;6.20;3.53;;;7.20;99.90;;;;;;5091890;28;20055;-85
2023/03/17 04:14:05;;;;;;;8.20;3.65;;;7.20;99.90;;;;;;5090471;28;20163;-85
2023/03/17 04:16:51;;;;;;;6.25;3.47;;;7.20;99.90;;;;;;5094170;28;20389;-86
2023/03/17 04:19:38;;;;;;;8.90;3.90;;;7.10;99.90;;;;;;5066198;28;20055;-84
2023/03/17 04:22:24;;;;;;;8.25;3.70;;;7.10;99.90;;;;;;5074573;28;20058;-85
2023/03/17 04:25:13;;;;;;;9.70;3.75;;;7.10;99.90;;;;;;5094464;28;20048;-83
2023/03/17 04:27:59;;;;;;;8.23;3.88;;;7.10;99.90;;;;;;5098270;28;20629;-83
2023/03/17 04:30:45;;;;;;;8.02;4.00;;;7.00;99.90;;;;;;5091678;28;20044;-84
2023/03/17 04:33:32;;;;;;;8.27;3.70;;;7.00;99.90;;;;;;5092256;28;20060;-85
2023/03/17 04:36:21;;;;;;;9.55;3.65;;;7.00;99.90;;;;;;5092584;28;20052;-86
2023/03/17 04:39:07;;;;;;;8.35;3.78;;;7.00;99.90;;;;;;5096396;28;20195;-83
2023/03/17 04:41:53;;;;;;;7.55;4.18;;;7.00;99.90;;;;;;5091986;28;20055;-82
2023/03/17 04:44:40;;;;;;;7.03;4.07;;;7.00;99.90;;;;;;5090621;28;20044;-85
2023/03/17 04:47:26;;;;;;;7.38;3.53;;;6.90;99.90;;;;;;5091659;28;20396;-82
2023/03/17 04:50:13;;;;;;;8.23;3.58;;;6.90;99.90;;;;;;5092035;28;20063;-83
2023/03/17 04:52:59;;;;;;;7.20;4.00;;;6.90;99.90;;;;;;5061398;28;20107;-83
2023/03/17 04:55:45;;;;;;;8.88;3.88;;;6.90;99.90;;;;;;5097154;28;20040;-84
2023/03/17 04:58:31;;;;;;;8.45;4.03;;;6.90;99.90;;;;;;5102470;28;20048;-85
2023/03/17 05:01:17;;;;;;;7.90;4.45;;;6.90;99.90;;;;;;5097256;28;20064;-82
2023/03/17 05:04:04;;;;;;;6.75;4.03;;;6.90;99.90;;;;;;5093877;28;20055;-84
2023/03/17 05:06:50;;;;;;;7.03;3.58;;;6.80;99.90;;;;;;5089978;28;20169;-84
2023/03/17 05:09:36;;;;;;;9.02;3.90;;;6.90;99.90;;;;;;5091840;28;20706;-84
2023/03/17 05:12:22;;;;;;;7.82;3.83;;;6.80;99.90;;;;;;5090302;28;20058;-85
2023/03/17 05:15:09;;;;;;;6.75;3.60;;;6.90;99.90;;;;;;5090592;28;20091;-86
2023/03/17 05:17:56;;;;;;;7.43;3.55;;;6.80;99.90;;;;;;5098178;28;20097;-84
2023/03/17 05:20:42;;;;;;;7.75;4.22;;;6.90;99.90;;;;;;5089945;28;20048;-84
2023/03/17 05:23:29;;;;;;;8.25;4.00;;;6.90;99.90;;;;;;5072490;28;20129;-84
2023/03/17 05:26:15;;;;;;;10.32;4.38;;;6.90;99.90;;;;;;5079923;28;20161;-85
2023/03/17 05:29:02;;;;;;;7.72;3.83;;;6.90;99.90;;;;;;5090456;28;20519;-83
2023/03/17 05:31:48;;;;;;;9.98;4.00;;;6.90;99.90;;;;;;5072288;28;20090;-82
2023/03/17 05:34:34;;;;;;;18.83;6.13;;;6.90;99.90;;;;;;5089996;28;20070;-82
2023/03/17 05:37:20;;;;;;;7.53;3.78;;;7.00;99.90;;;;;;5075603;28;20048;-83
2023/03/17 05:40:07;;;;;;;6.90;3.35;;;6.90;99.90;;;;;;5091201;28;20040;-85
2023/03/17 05:42:53;;;;;;;11.15;4.63;;;6.90;99.90;;;;;;5067410;28;20109;-83
2023/03/17 05:45:39;;;;;;;8.95;4.15;;;6.90;99.90;;;;;;5071991;28;20051;-85
2023/03/17 05:48:26;;;;;;;8.25;3.83;;;6.90;99.90;;;;;;5074946;28;20062;-84
2023/03/17 05:51:12;;;;;;;9.00;3.58;;;6.90;99.90;;;;;;5092782;28;20525;-84
2023/03/17 05:53:58;;;;;;;6.97;3.17;;;7.00;99.90;;;;;;5099943;28;20044;-86
2023/03/17 05:56:44;;;;;;;6.40;3.42;;;7.00;99.90;;;;;;5058799;28;20132;-84
2023/03/17 05:59:30;;;;;;;9.88;4.43;;;6.90;99.90;;;;;;5089660;28;20563;-86
2023/03/17 06:02:16;;;;;;;6.20;3.80;;;7.00;99.90;;;;;;5073173;28;20214;-86
2023/03/17 06:05:03;;;;;;;9.35;3.90;;;7.00;99.90;;;;;;5072471;28;20044;-84
2023/03/17 06:07:50;;;;;;;9.23;3.60;;;7.00;99.90;;;;;;5068630;28;20386;-87
2023/03/17 06:10:36;;;;;;;6.03;3.10;;;7.00;99.90;;;;;;5069104;28;20453;-85
2023/03/17 06:13:22;;;;;;;7.15;3.90;;;7.00;99.90;;;;;;5067131;28;20161;-84
2023/03/17 06:16:08;;;;;;;6.22;3.35;;;7.10;99.90;;;;;;5069480;28;20119;-84
2023/03/17 06:18:54;;;;;;;6.20;3.40;;;7.00;99.90;;;;;;5067222;28;20056;-85
2023/03/17 06:21:40;;;;;;;7.05;3.58;;;7.00;99.90;;;;;;5082144;28;20575;-84
2023/03/17 06:24:26;;;;;;;6.70;3.05;;;7.10;99.90;;;;;;5075421;28;20121;-85
2023/03/17 06:27:14;;;;;;;7.63;3.65;;;7.10;99.90;;;;;;5079193;28;20053;-84
2023/03/17 06:30:00;;;;;;;7.28;3.30;;;7.10;99.90;;;;;;5069490;28;20055;-83
2023/03/17 06:32:47;;;;;;;9.88;3.55;;;7.10;99.90;;;;;;5070153;28;20053;-84
2023/03/17 06:35:33;;;;;;;8.05;3.42;;;7.10;99.90;;;;;;5069516;28;20068;-84
2023/03/17 06:38:19;;;;;;;7.43;3.15;;;7.10;99.90;;;;;;5068798;28;20048;-86
2023/03/17 06:41:05;;;;;;;6.35;3.10;;;7.20;99.90;;;;;;5080873;28;20409;-84
2023/03/17 06:43:52;;;;;;;6.82;3.10;;;7.20;99.90;;;;;;5069045;28;20164;-87
2023/03/17 06:46:38;;;;;;;8.63;3.30;;;7.30;99.90;;;;;;5077159;28;20783;-85
2023/03/17 06:49:24;;;;;;;7.25;3.08;;;7.40;99.90;;;;;;5069895;28;20404;-83
2023/03/17 06:52:12;;;;;;;5.95;2.90;;;7.40;99.90;;;;;;5070707;28;20508;-82
2023/03/17 06:54:58;;;;;;;7.47;3.25;;;7.40;99.90;;;;;;5075057;28;20091;-85
2023/03/17 06:57:44;;;;;;;7.97;3.20;;;7.50;99.90;;;;;;5068922;28;20083;-83
2023/03/17 07:00:31;;;;;;;8.02;2.88;;;7.50;99.90;;;;;;5080553;28;20143;-84
2023/03/17 07:03:17;;;;;;;9.35;3.58;;;7.60;99.90;;;;;;5069047;28;20061;-86
2023/03/17 07:06:04;;;;;;;6.53;3.13;;;7.60;99.90;;;;;;5073288;28;20052;-85
2023/03/17 07:08:51;;;;;;;7.53;3.85;;;7.70;99.90;;;;;;5082100;28;20078;-82
2023/03/17 07:11:38;;;;;;;7.45;3.65;;;7.80;99.90;;;;;;5072907;28;20052;-84
2023/03/17 07:14:24;;;;;;;6.78;3.03;;;7.90;99.90;;;;;;5073841;28;20048;-83
2023/03/17 07:17:12;;;;;;;7.22;4.47;;;8.10;99.90;;;;;;5060884;28;20080;-86
2023/03/17 07:19:58;;;;;;;8.90;3.33;;;8.20;99.90;;;;;;5073139;28;20052;-85
2023/03/17 07:22:45;;;;;;;7.13;3.28;;;8.40;99.90;;;;;;5077310;28;20048;-86
2023/03/17 07:25:31;;;;;;;6.93;3.10;;;8.50;99.90;;;;;;5084725;28;20125;-83
2023/03/17 07:28:18;;;;;;;6.72;2.95;;;8.80;99.90;;;;;;5077821;28;20055;-84
2023/03/17 07:31:07;;;;;;;7.72;3.03;;;8.80;99.90;;;;;;5064639;28;20087;-86
2023/03/17 07:33:53;;;;;;;7.03;3.00;;;8.70;99.90;;;;;;5077283;28;20048;-86
2023/03/17 07:36:40;;;;;;;9.98;3.95;;;8.60;99.90;;;;;;5074835;28;20052;-84
2023/03/17 07:39:26;;;;;;;5.63;3.00;;;8.60;99.90;;;;;;5078831;28;20056;-85
2023/03/17 07:42:14;;;;;;;5.55;2.92;;;8.60;99.90;;;;;;5083362;28;20134;-83
2023/03/17 07:45:01;;;;;;;5.40;2.30;;;8.60;99.90;;;;;;5073548;28;20044;-83
2023/03/17 07:47:47;;;;;;;5.43;2.72;;;8.70;99.90;;;;;;5072888;28;20055;-82
2023/03/17 07:50:34;;;;;;;6.75;3.55;;;8.70;99.90;;;;;;5072393;28;20049;-82
2023/03/17 07:53:20;;;;;;;7.10;3.28;;;8.90;99.90;;;;;;5072082;28;20131;-82
2023/03/17 07:56:07;;;;;;;8.02;3.53;;;8.90;99.90;;;;;;5073493;28;20055;-82
2023/03/17 07:58:53;;;;;;;10.25;3.40;;;8.90;99.90;;;;;;5075061;28;20036;-82
2023/03/17 08:01:39;;;;;;;7.30;3.42;;;8.90;99.90;;;;;;5078743;28;20056;-83
2023/03/17 08:04:27;;;;;;;6.53;2.90;;;9.00;99.90;;;;;;5080304;28;20110;-83
2023/03/17 08:07:14;;;;;;;7.82;3.35;;;9.10;99.90;;;;;;5073857;28;20049;-83
2023/03/17 08:10:01;;;;;;;7.03;2.90;;;9.40;99.90;;;;;;5088860;28;20060;-84
2023/03/17 08:12:50;;;;;;;7.38;3.00;;;9.40;99.90;;;;;;5075726;28;20552;-82
2023/03/17 08:15:37;;;;;;;7.10;3.10;;;9.40;99.90;;;;;;5069576;28;20091;-82
2023/03/17 08:18:23;;;;;;;8.32;3.35;;;9.40;99.90;;;;;;5071848;28;20127;-82
2023/03/17 08:21:09;;;;;;;7.28;3.28;;;9.40;99.90;;;;;;5070535;28;20044;-85
2023/03/17 08:23:55;;;;;;;6.82;3.15;;;9.50;99.90;;;;;;5071565;28;20571;-86
2023/03/17 08:26:42;;;;;;;7.13;2.97;;;9.50;99.90;;;;;;5071493;28;20052;-84
2023/03/17 08:29:29;;;;;;;5.70;2.90;;;9.50;99.90;;;;;;5070255;28;20508;-84
2023/03/17 08:32:15;;;;;;;7.20;3.40;;;9.50;99.90;;;;;;5069877;28;20060;-85
2023/03/17 08:35:01;;;;;;;7.28;3.38;;;9.40;99.90;;;;;;5073702;28;20048;-86
2023/03/17 08:37:48;;;;;;;8.48;3.22;;;9.50;99.90;;;;;;5075855;28;20190;-81
2023/03/17 08:40:37;;;;;;;6.90;3.40;;;9.50;99.90;;;;;;5070217;28;20090;-85
2023/03/17 08:43:23;;;;;;;8.25;3.47;;;9.60;99.90;;;;;;5087932;28;20044;-86
2023/03/17 08:46:24;;;;;;;6.97;2.83;;;9.70;99.90;;;;;;5078263;28;20044;-84
2023/03/17 08:49:11;;;;;;;10.23;3.63;;;9.80;99.90;;;;;;5079101;28;20052;-84
2023/03/17 08:51:57;;;;;;;6.95;2.80;;;10.00;99.90;;;;;;5076487;28;20052;-82
2023/03/17 08:54:43;;;;;;;7.13;3.20;;;10.10;99.90;;;;;;5073006;28;20145;-84
2023/03/17 08:57:30;;;;;;;7.88;3.45;;;10.30;99.90;;;;;;5072306;28;20044;-83
2023/03/17 09:00:19;;;;;;;8.45;3.78;;;10.40;99.90;;;;;;5072985;28;20044;-83
2023/03/17 09:03:05;;;;;;;11.88;3.20;;;10.60;99.90;;;;;;5070157;28;20056;-83
2023/03/17 09:05:51;;;;;;;6.00;3.13;;;10.80;99.90;;;;;;5071084;28;20076;-83
2023/03/17 09:08:43;;;;;;;7.50;3.63;;;10.80;99.90;;;;;;5068359;28;20056;-83
2023/03/17 09:11:31;;;;;;;7.72;3.60;;;10.90;99.90;;;;;;5070661;28;20063;-85
2023/03/17 09:14:17;;;;;;;6.40;3.22;;;11.00;99.90;;;;;;5071952;28;20143;-83
2023/03/17 09:17:04;;;;;;;5.82;2.70;;;11.10;99.90;;;;;;5079481;28;20139;-82
2023/03/17 09:19:50;;;;;;;8.35;3.38;;;11.10;99.90;;;;;;5081602;28;20044;-83
2023/03/17 09:22:36;;;;;;;6.78;3.38;;;11.20;99.90;;;;;;5083423;28;20045;-87
2023/03/17 09:25:23;;;;;;;8.15;3.40;;;11.20;99.90;;;;;;5083275;28;20052;-85
2023/03/17 09:28:11;;;;;;;6.43;3.40;;;11.30;99.90;;;;;;5075694;28;20048;-85
2023/03/17 09:31:00;;;;;;;9.43;3.63;;;11.30;99.90;;;;;;5051250;28;20132;-85
2023/03/17 09:33:46;;;;;;;12.20;3.30;;;11.50;99.90;;;;;;5039612;28;20373;-86
2023/03/17 09:36:32;;;;;;;5.80;3.42;;;11.60;99.90;;;;;;5052720;28;20052;-86
2023/03/17 09:39:21;;;;;;;8.30;3.13;;;11.70;99.90;;;;;;5070396;28;20044;-85
2023/03/17 09:42:11;;;;;;;6.38;3.58;;;11.80;99.90;;;;;;5055914;28;20135;-83
2023/03/17 09:45:12;;;;;;;6.88;3.42;;;12.10;99.90;;;;;;5072690;28;20052;-86
2023/03/17 09:48:08;;;;;;;8.60;3.70;;;12.40;99.90;;;;;;5077117;28;20044;-84
2023/03/17 09:51:19;;;;;;;10.10;3.83;;;12.60;99.90;;;;;;5053781;28;20048;-83
2023/03/17 09:54:11;;;;;;;9.60;4.57;;;12.70;99.90;;;;;;5045416;28;20076;-81
2023/03/17 09:57:15;;;;;;;10.35;3.72;;;12.80;99.90;;;;;;5074182;28;20094;-85
2023/03/17 10:00:09;;;;;;;7.97;4.35;;;12.80;99.90;;;;;;5070393;28;20148;-80
2023/03/17 10:02:56;;;;;;;11.10;4.80;;;13.10;99.90;;;;;;5052386;28;20140;-81
2023/03/17 10:05:43;;;;;;;10.60;4.75;;;13.50;99.90;;;;;;5076209;28;20132;-82
2023/03/17 10:08:32;;;;;;;9.73;4.95;;;13.90;99.90;;;;;;5078960;28;20044;-86
2023/03/17 10:11:32;;;;;;;10.02;5.22;;;14.10;99.90;;;;;;5069350;28;20047;-84
2023/03/17 10:14:30;;;;;;;10.85;4.53;;;14.30;99.20;;;;;;5069632;28;20139;-83
2023/03/17 10:17:18;;;;;;;13.25;5.53;;;14.20;98.90;;;;;;5070060;28;20048;-83
2023/03/17 10:20:20;;;;;;;13.65;6.05;;;14.10;99.20;;;;;;5070775;28;20522;-83
2023/03/17 10:23:10;;;;;;;11.60;4.90;;;14.10;99.30;;;;;;5055442;28;20044;-83
2023/03/17 10:26:04;;;;;;;12.63;5.38;;;14.20;98.90;;;;;;5054382;28;20095;-84
2023/03/17 10:28:52;;;;;;;10.98;5.28;;;14.40;99.00;;;;;;5080645;28;20044;-87
2023/03/17 10:31:39;;;;;;;10.52;5.55;;;14.80;99.10;;;;;;5084647;28;20051;-84
2023/03/17 10:34:29;;;;;;;9.50;4.47;;;15.20;99.10;;;;;;5074404;28;20404;-85
2023/03/17 10:37:21;;;;;;;11.98;5.43;;;15.40;98.60;;;;;;5070035;28;20048;-84
2023/03/17 10:40:19;;;;;;;11.93;4.93;;;15.60;98.40;;;;;;5070916;28;20135;-83
2023/03/17 10:43:07;;;;;;;10.68;4.60;;;15.90;98.00;;;;;;5069050;28;20614;-85
2023/03/17 10:46:01;;;;;;;9.88;4.93;;;16.00;97.60;;;;;;5071022;28;20052;-83
2023/03/17 10:48:55;;;;;;;12.82;4.70;;;16.00;96.90;;;;;;5071097;28;20201;-84
2023/03/17 10:51:45;;;;;;;8.77;4.50;;;16.30;97.20;;;;;;5070369;28;20116;-84
2023/03/17 10:54:34;;;;;;;8.35;4.05;;;16.40;97.10;;;;;;5076534;28;20049;-84
2023/03/17 10:57:21;;;;;;;9.27;5.07;;;16.60;96.70;;;;;;5056535;28;20049;-85
2023/03/17 11:00:18;;;;;;;7.13;4.63;;;16.60;96.20;;;;;;5075187;28;20596;-85
2023/03/17 11:03:23;;;;;;;8.98;4.90;;;16.80;95.70;;;;;;5071123;28;20056;-87
2023/03/17 11:06:12;;;;;;;10.07;3.95;;;16.90;96.20;;;;;;5069574;28;20072;-86
2023/03/17 11:09:08;;;;;;;7.70;3.90;;;17.20;96.30;;;;;;5071596;28;20067;-85
2023/03/17 11:12:26;;;;;;;7.32;4.07;;;17.10;95.40;;;;;;5071840;28;20044;-87
2023/03/17 11:15:17;;;;;;;8.52;4.03;;;17.10;95.70;;;;;;5047578;28;20052;-87
2023/03/17 11:18:09;;;;;;;12.88;4.20;;;17.20;95.50;;;;;;5073042;28;20132;-85
2023/03/17 11:21:00;;;;;;;7.53;4.22;;;17.30;95.70;;;;;;5055148;28;20088;-86
2023/03/17 11:24:08;;;;;;;8.40;4.28;;;17.40;95.70;;;;;;5059060;28;20497;-86
2023/03/17 11:27:11;;;;;;;9.00;3.85;;;17.60;95.30;;;;;;5077580;28;20044;-84
2023/03/17 11:30:28;;;;;;;8.75;4.32;;;17.90;95.00;;;;;;5061121;28;20055;-86
2023/03/17 11:33:48;;;;;;;11.25;4.95;;;18.00;94.70;;;;;;5059223;28;20136;-86
2023/03/17 11:36:44;;;;;;;7.70;4.75;;;18.00;94.80;;;;;;5042404;28;20049;-84
2023/03/17 11:39:40;;;;;;;8.35;4.22;;;17.90;94.90;;;;;;5071815;28;20052;-84
2023/03/17 11:42:36;;;;;;;9.00;5.10;;;18.10;94.90;;;;;;5055338;28;20048;-83
2023/03/17 11:45:48;;;;;;;10.00;4.55;;;18.00;94.70;;;;;;5070472;28;20090;-83
2023/03/17 11:48:42;;;;;;;10.88;4.57;;;18.30;95.10;;;;;;5055186;28;20497;-86
2023/03/17 11:51:56;;;;;;;9.10;4.10;;;18.30;94.50;;;;;;5057327;28;20515;-86
2023/03/17 11:55:04;;;;;;;8.25;4.72;;;18.60;94.00;;;;;;5074118;28;20579;-85
2023/03/17 11:58:04;;;;;;;11.65;5.75;;;18.60;94.30;;;;;;5072540;28;20053;-81
2023/03/17 12:00:55;;;;;;;9.65;5.35;;;18.90;94.20;;;;;;5072558;28;20063;-87
2023/03/17 12:03:56;;;;;;;9.98;4.72;;;19.00;93.40;;;;;;5054148;28;20767;-85
2023/03/17 12:06:49;;;;;;;8.20;4.72;;;19.50;93.20;;;;;;5060027;28;20053;-84
2023/03/17 12:09:46;;;;;;;10.07;4.95;;;19.60;92.60;;;;;;5054301;28;20516;-87
2023/03/17 12:12:43;;;;;;;9.45;5.53;;;19.90;92.10;;;;;;5074789;28;20496;-86
2023/03/17 12:15:40;;;;;;;7.00;4.25;;;20.20;92.40;;;;;;5064214;28;20052;-83
2023/03/17 12:18:59;;;;;;;8.80;4.40;;;20.60;91.40;;;;;;5058427;28;20501;-84
2023/03/17 12:22:08;;;;;;;8.13;4.90;;;21.20;90.00;;;;;;5074667;28;20048;-83
2023/03/17 12:24:57;;;;;;;10.30;5.30;;;21.80;89.30;;;;;;5076175;28;20580;-83
2023/03/17 12:28:00;;;;;;;9.48;4.65;;;21.80;87.00;;;;;;5054978;28;20493;-87
2023/03/17 12:31:08;;;;;;;9.52;5.10;;;21.20;87.90;;;;;;5077718;28;20131;-84
2023/03/17 12:34:27;;;;;;;9.40;4.25;;;20.90;86.20;;;;;;5073596;28;20506;-81
2023/03/17 12:37:16;;;;;;;10.73;5.60;;;20.50;89.50;;;;;;5055161;28;20048;-80
2023/03/17 12:40:11;;;;;;;11.60;5.80;;;20.10;90.60;;;;;;5075206;28;20052;-85
2023/03/17 12:43:18;;;;;;;9.68;5.88;;;19.80;90.60;;;;;;5076568;28;20155;-81
2023/03/17 12:46:17;;;;;;;10.48;5.05;;;19.70;91.10;;;;;;5074582;28;20049;-81
2023/03/17 12:49:18;;;;;;;9.75;5.47;;;19.50;91.10;;;;;;5072017;28;20056;-84
2023/03/17 12:52:43;;;;;;;8.75;5.05;;;19.30;91.00;;;;;;5076656;28;20094;-82
2023/03/17 12:55:32;;;;;;;10.20;5.38;;;19.60;90.70;;;;;;5034686;28;20083;-81
2023/03/17 12:58:29;;;;;;;10.13;5.68;;;19.50;90.80;;;;;;5072271;28;20106;-82
2023/03/17 13:01:43;;;;;;;10.18;5.82;;;19.60;90.90;;;;;;5070028;28;20056;-85
2023/03/17 13:04:34;;;;;;;8.02;4.90;;;20.10;90.70;;;;;;5057419;28;20048;-86
2023/03/17 13:07:36;;;;;;;8.95;5.05;;;20.20;89.90;;;;;;5034650;28;20057;-82
2023/03/17 13:10:42;;;;;;;14.85;5.35;;;19.30;90.10;;;;;;5052699;28;20493;-83
2023/03/17 13:14:15;;;;;;;11.38;6.15;;;18.50;91.50;;;;;;5050783;28;20049;-82
2023/03/17 13:17:19;;;;;;;10.50;5.25;;;18.00;93.00;;;;;;5045777;28;20073;-83
2023/03/17 13:20:08;;;;;;;8.65;5.30;;;17.70;93.70;;;;;;5051908;28;20049;-82
2023/03/17 13:23:10;;;;;;;11.63;5.18;;;17.30;94.50;;;;;;5038051;28;20102;-81
2023/03/17 13:25:56;;;;;;;10.05;5.82;;;17.20;95.60;;;;;;5055788;28;20052;-86
2023/03/17 13:28:49;;;;;;;13.27;5.75;;;17.20;95.90;;;;;;5059415;28;20045;-81
2023/03/17 13:31:36;;;;;;;14.00;5.78;;;17.40;95.60;;;;;;5033349;28;20468;-81
2023/03/17 13:34:22;;;;;;;10.02;5.43;;;17.60;95.70;;;;;;5050195;28;20052;-81
2023/03/17 13:37:27;;;;;;;9.38;5.03;;;18.60;95.10;;;;;;5050879;28;20079;-82
2023/03/17 13:40:23;;;;;;;8.35;5.47;;;19.60;93.60;;;;;;5033895;28;20473;-82
2023/03/17 13:43:15;;;;;;;13.52;6.13;;;20.60;91.60;;;;;;5050607;28;20088;-85
2023/03/17 13:46:38;;;;;;;9.65;5.30;;;21.50;90.30;;;;;;5052453;28;20131;-85
2023/03/17 13:49:30;;;;;;;8.60;5.40;;;21.80;87.00;;;;;;5061053;28;20045;-84
2023/03/17 13:52:24;;;;;;;12.25;6.30;;;21.50;85.60;;;;;;5053372;28;20481;-80
2023/03/17 13:55:19;;;;;;;9.13;5.17;;;21.10;86.10;;;;;;5050950;28;20056;-81
2023/03/17 13:58:08;;;;;;;10.65;4.90;;;20.70;87.90;;;;;;5051794;28;20412;-82
2023/03/17 14:01:02;;;;;;;10.27;5.38;;;21.30;88.30;;;;;;5056559;28;20049;-83
2023/03/17 14:03:50;;;;;;;9.20;5.03;;;21.70;86.60;;;;;;5067186;28;20515;-82
2023/03/17 14:06:37;;;;;;;14.43;5.57;;;22.40;85.80;;;;;;5056308;28;20047;-81
2023/03/17 14:09:31;;;;;;;10.23;5.38;;;22.40;83.20;;;;;;5070262;28;20558;-81
2023/03/17 14:12:22;;;;;;;8.88;5.50;;;22.20;82.50;;;;;;5074119;28;20057;-83
2023/03/17 14:15:20;;;;;;;10.25;5.95;;;21.30;83.70;;;;;;5071500;28;20057;-85
2023/03/17 14:18:16;;;;;;;13.25;6.38;;;20.10;86.30;;;;;;5069599;28;20049;-84
2023/03/17 14:21:08;;;;;;;19.73;6.65;;;19.60;89.60;;;;;;5052782;28;20588;-81
2023/03/17 14:24:00;;;;;;;14.68;5.53;;;19.10;90.70;;;;;;5054212;28;20044;-85
2023/03/17 14:26:47;;;;;;;8.80;5.03;;;18.70;92.10;;;;;;5073088;28;20098;-83
2023/03/17 14:29:34;;;;;;;8.90;5.35;;;18.30;93.10;;;;;;5070911;28;20519;-84
2023/03/17 14:32:23;;;;;;;12.73;6.10;;;18.00;93.90;;;;;;5074754;28;20040;-85
2023/03/17 14:35:12;;;;;;;11.65;6.43;;;17.80;94.50;;;;;;5059653;28;20186;-82
2023/03/17 14:38:00;;;;;;;10.40;5.38;;;17.50;95.00;;;;;;5070584;28;20045;-82
2023/03/17 14:40:47;;;;;;;9.68;5.43;;;17.20;95.70;;;;;;5074170;28;20049;-82
2023/03/17 14:43:35;;;;;;;9.18;5.40;;;17.00;96.40;;;;;;5071918;28;20121;-81
2023/03/17 14:46:23;;;;;;;11.15;6.00;;;16.90;97.00;;;;;;5070244;28;20560;-82
2023/03/17 14:49:19;;;;;;;9.38;4.85;;;16.90;97.10;;;;;;5051930;28;20488;-84